Etusivu
METAR-TAF:

METAR-TAF

Lentoasemat :

Fritzlar, Saksa

Leveyspiiri: 51-07N, Pituuspiiri: 009-17E, korkeus merenpinnasta: 172 m

Tämänhetkinen sää

Tämä raportti tehtiin 15 minuuttia sitten, kello 15.00 UTC
Tuuli 10 kn etelästä/lounaasta
Lämpötila 23°C
Kosteus 47%
Ilmanpaine 1011 hPa
Näkyvyys 10 km tai enemmän
Muutamia pilviä 31000 ft:n korkeudessa

METAR: ETHF 141500Z 20010KT 9999 FEW310 23/11 Q1011 BLU+FCST CANCEL

Aika: 17:15 (15:15 UTC)

Sääennuste

Tämä raportti tehtiin 51 minuuttia sitten, kello 14.24 UTC
Ennuste voimassa 14. päivästä klo 14 UTC - 14. päivään klo 23 UTC
Tuuli 5 kn etelästä
Näkyvyys: 1500 m
Hajonneita pilviä 30000 ft:n korkeudessa

TAF: ETHF 141424Z 1414/1423 18005KT 9999 NSW BKN300 CANCEL 1500

Säähavainnot ja -ennusteet yli 4000 lentoasemalta (METAR- ja TAF-raportit).

Käytössä olevat sääasemat on merkitty karttaan keltaisilla ja punaisilla pisteillä.

Aseta hiiri pisteen päälle nähdäksesi sääaseman nimen.

Klikkaa sitten nähdäksesi säähavainnot ja -ennusteet.

Kartan vaihtaminen: klikkaa mustalla rastilla varustettuja vihreitä pisteitä, niin voit zoomata sisään; viivalla varustettua vihreää pistettä, niin voit zoomata ulos tai vihreitä nuolia, niin pääset viereisille kartoille.


METAR-TAF: